RJTT/HND METAR and TAF weather

Enter ICAO airport designator
Station Type Date Time Source
RJTT METAR 2021/08/05 05:00 UTC NOAA

RJTT 050500Z 12007KT 9999 FEW020 34/24 Q1006 NOSIG RMK 1CU020 A2972


Station Type Date Time Source
RJTT Decoded METAR 2021/08/05 05:00 UTC NOAA

Tokyo International Airport, Japan (RJTT) 35-33N 139-47E 8M
Aug 05, 2021 - 01:00 AM EDT / 2021.08.05 0500 UTC
Wind: from the ESE (120 degrees) at 8 MPH (7 KT):0
Visibility: greater than 7 mile(s):0
Sky conditions: mostly clear
Temperature: 93 F (34 C)
Heat index: 104.5 F (40.3 C):1
Dew Point: 75 F (24 C)
Relative Humidity: 56%
Pressure (altimeter): 29.71 in. Hg (1006 hPa)
ob: RJTT 050500Z 12007KT 9999 FEW020 34/24 Q1006 NOSIG RMK 1CU020 A2972
cycle: 5

Station Type Date Time Source
RJTT TAF 2021/08/04 18:29 UTC NOAA

TAF RJTT 041705Z 0418/0600 14005KT 9999 FEW015
BECMG 0420/0422 04005KT
BECMG 0501/0503 08006KT
BECMG 0512/0515 02010KT

Example: see airport list